SIS57 KLAX-BIRK
Flight info
| Callsign | SIS57 |
|---|---|
| Flight time | N/A |
| Altitude | 35000 |
| Route | ORCKA5 LAS DCT BCE DCT VEL DCT KUOCA DCT ODDLL/N0477F370 DCT TIMMR DCT GYMBG DCT ZOMTA DCT SIDPO DCT FERNO DCT 54N090W DCT YER DCT YPX/N0473F390 DCT BERUS/M083F390 DCT EMBOK DCT 65N050W 66N040W 66N030W DCT INDES DCT INGAN INGAN2N |
| Aircraft | GLF5/M-SFGHIRWXY/S |
Departure
| Time | N/A |
|---|---|
| Airport | Los Angeles International Airport (KLAX) |
Arrival
| Time | 2026-04-27 02:48 |
|---|---|
| Airport | Reykjavík Domestic Airport (BIRK) |
| Time | Latitude | Longitude | Altitude | Speed | Heading |
|---|---|---|---|---|---|
| 2026-04-27 00:54 | 64.05389 | -55.29533 | 38927 ft | 510 kts | 60° |
| 2026-04-27 00:54 | 64.08369 | -55.14831 | 38925 ft | 510 kts | 60° |
| 2026-04-27 00:55 | 64.11305 | -55.00241 | 38934 ft | 509 kts | 60° |
| 2026-04-27 00:55 | 64.14242 | -54.85546 | 38932 ft | 509 kts | 61° |
| 2026-04-27 00:56 | 64.17165 | -54.70814 | 38931 ft | 509 kts | 61° |
| 2026-04-27 00:56 | 64.20051 | -54.56163 | 38930 ft | 509 kts | 61° |
| 2026-04-27 00:57 | 64.22962 | -54.41277 | 38930 ft | 510 kts | 61° |
| 2026-04-27 00:57 | 64.25835 | -54.26479 | 38925 ft | 510 kts | 62° |
| 2026-04-27 00:58 | 64.28704 | -54.11591 | 38927 ft | 511 kts | 62° |
| 2026-04-27 00:58 | 64.31573 | -53.96598 | 38942 ft | 511 kts | 62° |
| 2026-04-27 00:59 | 64.34406 | -53.81678 | 38952 ft | 512 kts | 62° |
| 2026-04-27 00:59 | 64.37252 | -53.66578 | 38951 ft | 512 kts | 62° |
| 2026-04-27 01:00 | 64.40060 | -53.51574 | 38948 ft | 511 kts | 62° |
| 2026-04-27 01:00 | 64.42839 | -53.36606 | 38945 ft | 511 kts | 62° |
| 2026-04-27 01:01 | 64.45606 | -53.21594 | 38937 ft | 511 kts | 63° |
| 2026-04-27 01:01 | 64.48364 | -53.06514 | 38934 ft | 511 kts | 64° |
| 2026-04-27 01:02 | 64.51121 | -52.91320 | 38932 ft | 511 kts | 64° |
| 2026-04-27 01:02 | 64.53854 | -52.76143 | 38931 ft | 511 kts | 64° |
| 2026-04-27 01:03 | 64.56579 | -52.60901 | 38930 ft | 511 kts | 64° |
| 2026-04-27 01:03 | 64.59277 | -52.45683 | 38927 ft | 512 kts | 64° |
| 2026-04-27 01:04 | 64.61970 | -52.30376 | 38926 ft | 512 kts | 65° |
| 2026-04-27 01:04 | 64.64642 | -52.15068 | 38937 ft | 513 kts | 65° |
| 2026-04-27 01:05 | 64.67292 | -51.99769 | 38948 ft | 513 kts | 65° |
| 2026-04-27 01:05 | 64.69952 | -51.84293 | 38922 ft | 513 kts | 65° |
| 2026-04-27 01:06 | 64.72579 | -51.68879 | 38879 ft | 513 kts | 65° |
| 2026-04-27 01:06 | 64.75179 | -51.53500 | 38851 ft | 513 kts | 65° |
| 2026-04-27 01:07 | 64.77776 | -51.38015 | 38875 ft | 512 kts | 65° |
| 2026-04-27 01:07 | 64.80362 | -51.22472 | 38917 ft | 513 kts | 66° |
| 2026-04-27 01:08 | 64.82922 | -51.06957 | 38895 ft | 513 kts | 67° |
| 2026-04-27 01:08 | 64.85466 | -50.91409 | 38890 ft | 511 kts | 67° |
| 2026-04-27 01:09 | 64.87995 | -50.75823 | 38932 ft | 511 kts | 67° |
| 2026-04-27 01:09 | 64.90520 | -50.60135 | 38875 ft | 513 kts | 67° |
| 2026-04-27 01:10 | 64.93008 | -50.44540 | 38750 ft | 512 kts | 67° |
| 2026-04-27 01:10 | 64.95452 | -50.29100 | 38643 ft | 511 kts | 68° |
| 2026-04-27 01:11 | 64.97924 | -50.13343 | 38514 ft | 511 kts | 68° |
| 2026-04-27 01:11 | 65.00353 | -49.97661 | 38480 ft | 510 kts | 68° |
| 2026-04-27 01:12 | 65.02506 | -49.81815 | 38349 ft | 512 kts | 71° |
| 2026-04-27 01:12 | 65.04674 | -49.65790 | 38210 ft | 512 kts | 71° |
| 2026-04-27 01:13 | 65.06826 | -49.49785 | 38161 ft | 511 kts | 71° |
| 2026-04-27 01:13 | 65.08958 | -49.33789 | 38107 ft | 511 kts | 72° |
| 2026-04-27 01:14 | 65.11069 | -49.17792 | 38051 ft | 511 kts | 72° |
| 2026-04-27 01:14 | 65.13166 | -49.01744 | 37998 ft | 512 kts | 72° |
| 2026-04-27 01:15 | 65.15253 | -48.85622 | 37953 ft | 512 kts | 72° |
| 2026-04-27 01:15 | 65.17319 | -48.69501 | 37916 ft | 512 kts | 72° |
| 2026-04-27 01:16 | 65.19360 | -48.53405 | 37880 ft | 512 kts | 72° |
| 2026-04-27 01:16 | 65.21397 | -48.37187 | 37839 ft | 512 kts | 72° |
| 2026-04-27 01:17 | 65.23428 | -48.20857 | 37794 ft | 512 kts | 73° |
| 2026-04-27 01:17 | 65.25435 | -48.04551 | 37755 ft | 512 kts | 73° |
| 2026-04-27 01:18 | 65.27426 | -47.88199 | 37719 ft | 512 kts | 74° |
| 2026-04-27 01:18 | 65.29386 | -47.71939 | 37685 ft | 513 kts | 74° |
| 2026-04-27 01:19 | 65.31342 | -47.55538 | 37664 ft | 513 kts | 74° |
| 2026-04-27 01:19 | 65.33279 | -47.39125 | 37644 ft | 513 kts | 74° |
| 2026-04-27 01:20 | 65.35184 | -47.22805 | 37623 ft | 513 kts | 75° |
| 2026-04-27 01:20 | 65.37088 | -47.06327 | 37604 ft | 513 kts | 75° |
| 2026-04-27 01:21 | 65.38958 | -46.89959 | 37587 ft | 512 kts | 75° |
| 2026-04-27 01:21 | 65.40817 | -46.73503 | 37570 ft | 513 kts | 75° |
| 2026-04-27 01:22 | 65.42665 | -46.56970 | 37554 ft | 513 kts | 76° |
| 2026-04-27 01:22 | 65.44486 | -46.40499 | 37537 ft | 512 kts | 76° |
| 2026-04-27 01:23 | 65.46285 | -46.24031 | 37519 ft | 511 kts | 77° |
| 2026-04-27 01:23 | 65.48062 | -46.07581 | 37500 ft | 511 kts | 77° |
| 2026-04-27 01:24 | 65.49828 | -45.91048 | 37480 ft | 510 kts | 77° |
| 2026-04-27 01:24 | 65.51568 | -45.74566 | 37468 ft | 510 kts | 77° |
| 2026-04-27 01:25 | 65.53291 | -45.58054 | 37457 ft | 510 kts | 77° |
| 2026-04-27 01:25 | 65.55001 | -45.41472 | 37444 ft | 510 kts | 77° |
| 2026-04-27 01:26 | 65.56684 | -45.24957 | 37425 ft | 510 kts | 78° |
| 2026-04-27 01:26 | 65.58343 | -45.08472 | 37395 ft | 510 kts | 78° |
| 2026-04-27 01:27 | 65.59998 | -44.91839 | 37371 ft | 510 kts | 78° |
| 2026-04-27 01:27 | 65.61633 | -44.75202 | 37353 ft | 510 kts | 78° |
| 2026-04-27 01:28 | 65.63254 | -44.58499 | 37340 ft | 511 kts | 79° |
| 2026-04-27 01:28 | 65.64849 | -44.41852 | 37327 ft | 511 kts | 79° |
| 2026-04-27 01:29 | 65.66438 | -44.25068 | 37314 ft | 511 kts | 80° |
| 2026-04-27 01:29 | 65.67989 | -44.08461 | 37304 ft | 510 kts | 80° |
| 2026-04-27 01:30 | 65.69533 | -43.91712 | 37294 ft | 510 kts | 81° |
| 2026-04-27 01:30 | 65.71055 | -43.74978 | 37293 ft | 510 kts | 81° |
| 2026-04-27 01:31 | 65.72562 | -43.58193 | 37292 ft | 510 kts | 81° |
| 2026-04-27 01:31 | 65.74041 | -43.41501 | 37294 ft | 510 kts | 81° |
| 2026-04-27 01:32 | 65.75510 | -43.24694 | 37296 ft | 510 kts | 82° |
| 2026-04-27 01:32 | 65.76959 | -43.07894 | 37300 ft | 510 kts | 82° |
| 2026-04-27 01:33 | 65.78386 | -42.91103 | 37308 ft | 510 kts | 82° |
| 2026-04-27 01:33 | 65.79794 | -42.74295 | 37313 ft | 510 kts | 82° |
| 2026-04-27 01:34 | 65.81186 | -42.57458 | 37319 ft | 509 kts | 82° |
| 2026-04-27 01:34 | 65.82556 | -42.40634 | 37323 ft | 509 kts | 82° |
| 2026-04-27 01:35 | 65.83916 | -42.23692 | 37331 ft | 508 kts | 83° |
| 2026-04-27 01:35 | 65.85255 | -42.06766 | 37347 ft | 508 kts | 83° |
| 2026-04-27 01:36 | 65.86568 | -41.89910 | 37369 ft | 507 kts | 83° |
| 2026-04-27 01:36 | 65.87861 | -41.73052 | 37412 ft | 507 kts | 83° |
| 2026-04-27 01:37 | 65.89130 | -41.56238 | 37442 ft | 507 kts | 83° |
| 2026-04-27 01:37 | 65.90391 | -41.39300 | 37477 ft | 507 kts | 83° |
| 2026-04-27 01:38 | 65.91628 | -41.22385 | 37521 ft | 507 kts | 84° |
| 2026-04-27 01:38 | 65.92851 | -41.05416 | 37549 ft | 508 kts | 84° |
| 2026-04-27 01:39 | 65.94055 | -40.88414 | 37564 ft | 509 kts | 84° |
| 2026-04-27 01:39 | 65.95238 | -40.71452 | 37564 ft | 509 kts | 84° |
| 2026-04-27 01:40 | 65.96406 | -40.54399 | 37581 ft | 510 kts | 84° |
| 2026-04-27 01:40 | 65.97564 | -40.37206 | 37595 ft | 510 kts | 84° |
| 2026-04-27 01:41 | 65.98692 | -40.20170 | 37604 ft | 510 kts | 85° |
| 2026-04-27 01:41 | 65.99796 | -40.03010 | 37592 ft | 510 kts | 86° |
| 2026-04-27 01:42 | 66.00495 | -39.85845 | 37597 ft | 507 kts | 90° |
| 2026-04-27 01:42 | 66.00990 | -39.68656 | 37596 ft | 508 kts | 90° |
| 2026-04-27 01:43 | 66.01504 | -39.51373 | 37617 ft | 508 kts | 90° |
| 2026-04-27 01:43 | 66.01999 | -39.34151 | 37645 ft | 507 kts | 91° |
| 2026-04-27 01:44 | 66.02476 | -39.16880 | 37677 ft | 507 kts | 91° |
| 2026-04-27 01:44 | 66.02933 | -38.99630 | 37691 ft | 506 kts | 91° |
| 2026-04-27 01:45 | 66.03366 | -38.82550 | 37714 ft | 505 kts | 91° |
| 2026-04-27 01:45 | 66.03784 | -38.65361 | 37892 ft | 500 kts | 91° |
| 2026-04-27 01:45 | 66.03982 | -38.56873 | 38254 ft | 498 kts | 91° |
| 2026-04-27 01:46 | 66.04175 | -38.48397 | 38446 ft | 504 kts | 91° |
| 2026-04-27 01:46 | 66.04554 | -38.31234 | 38450 ft | 509 kts | 91° |
| 2026-04-27 01:47 | 66.04916 | -38.13958 | 38455 ft | 504 kts | 91° |
| 2026-04-27 01:47 | 66.05254 | -37.96838 | 38530 ft | 502 kts | 92° |
| 2026-04-27 01:48 | 66.05572 | -37.79781 | 38490 ft | 503 kts | 92° |
| 2026-04-27 01:48 | 66.05875 | -37.62563 | 38447 ft | 502 kts | 92° |
| 2026-04-27 01:49 | 66.06155 | -37.45542 | 38429 ft | 502 kts | 92° |
| 2026-04-27 01:49 | 66.06419 | -37.28317 | 38368 ft | 503 kts | 92° |
| 2026-04-27 01:50 | 66.06664 | -37.11187 | 38374 ft | 501 kts | 92° |
| 2026-04-27 01:50 | 66.06887 | -36.94104 | 38421 ft | 502 kts | 92° |
| 2026-04-27 01:50 | 66.06993 | -36.85468 | 38286 ft | 506 kts | 92° |
| 2026-04-27 01:51 | 66.07095 | -36.76842 | 37990 ft | 508 kts | 92° |
| 2026-04-27 01:51 | 66.07191 | -36.68280 | 37783 ft | 502 kts | 92° |
| 2026-04-27 01:51 | 66.07282 | -36.59772 | 38072 ft | 492 kts | 93° |
| 2026-04-27 01:51 | 66.07365 | -36.51356 | 38340 ft | 495 kts | 93° |
| 2026-04-27 01:52 | 66.07446 | -36.42823 | 38446 ft | 502 kts | 93° |
| 2026-04-27 01:52 | 66.07597 | -36.25554 | 38476 ft | 507 kts | 94° |
| 2026-04-27 01:53 | 66.07728 | -36.08295 | 38455 ft | 504 kts | 94° |
| 2026-04-27 01:53 | 66.07838 | -35.91137 | 38441 ft | 502 kts | 94° |
| 2026-04-27 01:54 | 66.07928 | -35.74136 | 38499 ft | 502 kts | 94° |
| 2026-04-27 01:54 | 66.08002 | -35.56866 | 38529 ft | 504 kts | 94° |
| 2026-04-27 01:55 | 66.08055 | -35.39700 | 38538 ft | 504 kts | 94° |
| 2026-04-27 01:55 | 66.08090 | -35.22563 | 38538 ft | 503 kts | 95° |
| 2026-04-27 01:56 | 66.08106 | -34.96907 | 38541 ft | 503 kts | 95° |
| 2026-04-27 01:56 | 66.08093 | -34.79721 | 38545 ft | 503 kts | 95° |
| 2026-04-27 01:57 | 66.08061 | -34.62580 | 38548 ft | 504 kts | 95° |
| 2026-04-27 01:57 | 66.08009 | -34.45360 | 38552 ft | 504 kts | 95° |
| 2026-04-27 01:58 | 66.07940 | -34.28212 | 38555 ft | 504 kts | 96° |
| 2026-04-27 01:58 | 66.07850 | -34.11004 | 38560 ft | 504 kts | 96° |
| 2026-04-27 01:59 | 66.07742 | -33.93795 | 38566 ft | 504 kts | 96° |
| 2026-04-27 01:59 | 66.07614 | -33.76685 | 38571 ft | 504 kts | 96° |
| 2026-04-27 02:00 | 66.07468 | -33.59484 | 38578 ft | 504 kts | 96° |
| 2026-04-27 02:00 | 66.07302 | -33.42348 | 38586 ft | 504 kts | 96° |
| 2026-04-27 02:01 | 66.07117 | -33.25143 | 38591 ft | 503 kts | 97° |
| 2026-04-27 02:01 | 66.06914 | -33.08048 | 38598 ft | 502 kts | 96° |
| 2026-04-27 02:02 | 66.06692 | -32.90941 | 38605 ft | 502 kts | 96° |
| 2026-04-27 02:02 | 66.06451 | -32.73822 | 38612 ft | 502 kts | 96° |
| 2026-04-27 02:03 | 66.06190 | -32.56702 | 38619 ft | 502 kts | 96° |
| 2026-04-27 02:03 | 66.05912 | -32.39647 | 38625 ft | 503 kts | 96° |
| 2026-04-27 02:04 | 66.05620 | -32.22826 | 38628 ft | 502 kts | 97° |
| 2026-04-27 02:04 | 66.05302 | -32.05662 | 38635 ft | 502 kts | 97° |
| 2026-04-27 02:05 | 66.04968 | -31.88671 | 38641 ft | 502 kts | 97° |
| 2026-04-27 02:05 | 66.04613 | -31.71541 | 38649 ft | 502 kts | 97° |
| 2026-04-27 02:06 | 66.04240 | -31.54482 | 38657 ft | 502 kts | 97° |
| 2026-04-27 02:06 | 66.03848 | -31.37405 | 38667 ft | 502 kts | 97° |
| 2026-04-27 02:07 | 66.03439 | -31.20398 | 38674 ft | 501 kts | 98° |
| 2026-04-27 02:07 | 66.03007 | -31.03261 | 38684 ft | 501 kts | 98° |
| 2026-04-27 02:08 | 66.02562 | -30.86332 | 38696 ft | 501 kts | 98° |
| 2026-04-27 02:08 | 66.02096 | -30.69319 | 38705 ft | 501 kts | 98° |
| 2026-04-27 02:09 | 66.01608 | -30.52228 | 38715 ft | 501 kts | 98° |
| 2026-04-27 02:09 | 66.01104 | -30.35213 | 38721 ft | 501 kts | 98° |
| 2026-04-27 02:10 | 66.00584 | -30.18327 | 38725 ft | 500 kts | 99° |
| 2026-04-27 02:10 | 65.99644 | -30.01592 | 38724 ft | 487 kts | 115° |
| 2026-04-27 02:11 | 65.97063 | -29.86492 | 38737 ft | 483 kts | 121° |
| 2026-04-27 02:11 | 65.94026 | -29.71866 | 38740 ft | 482 kts | 123° |
| 2026-04-27 02:12 | 65.90938 | -29.57409 | 38745 ft | 481 kts | 123° |
| 2026-04-27 02:12 | 65.87819 | -29.42940 | 38752 ft | 481 kts | 123° |
| 2026-04-27 02:13 | 65.84705 | -29.28593 | 38758 ft | 481 kts | 124° |
| 2026-04-27 02:13 | 65.81576 | -29.14280 | 38765 ft | 481 kts | 124° |
| 2026-04-27 02:14 | 65.78412 | -28.99893 | 38773 ft | 482 kts | 124° |
| 2026-04-27 02:14 | 65.75253 | -28.85631 | 38779 ft | 483 kts | 124° |
| 2026-04-27 02:15 | 65.72063 | -28.71322 | 38772 ft | 483 kts | 124° |
| 2026-04-27 02:15 | 65.68873 | -28.57109 | 38761 ft | 483 kts | 124° |
| 2026-04-27 02:16 | 65.65655 | -28.42863 | 38764 ft | 483 kts | 124° |
| 2026-04-27 02:16 | 65.62415 | -28.28614 | 38766 ft | 483 kts | 124° |
| 2026-04-27 02:17 | 65.59193 | -28.14541 | 38771 ft | 483 kts | 124° |
| 2026-04-27 02:17 | 65.55933 | -28.00393 | 38777 ft | 484 kts | 124° |
| 2026-04-27 02:18 | 65.52653 | -27.86253 | 38782 ft | 484 kts | 124° |
| 2026-04-27 02:18 | 65.49365 | -27.72165 | 38789 ft | 484 kts | 124° |
| 2026-04-27 02:19 | 65.46089 | -27.58228 | 38798 ft | 484 kts | 124° |
| 2026-04-27 02:19 | 65.42763 | -27.44160 | 38804 ft | 484 kts | 124° |
| 2026-04-27 02:20 | 65.39445 | -27.30219 | 38807 ft | 484 kts | 126° |
| 2026-04-27 02:20 | 65.36111 | -27.16301 | 38811 ft | 484 kts | 126° |
| 2026-04-27 02:21 | 65.32763 | -27.02414 | 38817 ft | 484 kts | 126° |
| 2026-04-27 02:21 | 65.29430 | -26.88663 | 38817 ft | 472 kts | 126° |
| 2026-04-27 02:22 | 65.26159 | -26.75269 | 38825 ft | 465 kts | 126° |
| 2026-04-27 02:22 | 65.22894 | -26.61978 | 38832 ft | 467 kts | 126° |
| 2026-04-27 02:23 | 65.19614 | -26.48707 | 38835 ft | 469 kts | 126° |
| 2026-04-27 02:23 | 65.16245 | -26.35498 | 38837 ft | 466 kts | 130° |
| 2026-04-27 02:24 | 65.12447 | -26.23176 | 38839 ft | 464 kts | 132° |
| 2026-04-27 02:24 | 65.08630 | -26.10901 | 38843 ft | 464 kts | 132° |
| 2026-04-27 02:25 | 65.04806 | -25.98662 | 38847 ft | 464 kts | 132° |
| 2026-04-27 02:25 | 65.00969 | -25.86450 | 38854 ft | 465 kts | 132° |
| 2026-04-27 02:26 | 64.97128 | -25.74292 | 38864 ft | 466 kts | 132° |
| 2026-04-27 02:26 | 64.93250 | -25.62080 | 38863 ft | 466 kts | 132° |
| 2026-04-27 02:27 | 64.91302 | -25.55975 | 38458 ft | 473 kts | 132° |
| 2026-04-27 02:27 | 64.89345 | -25.49847 | 38080 ft | 469 kts | 132° |
| 2026-04-27 02:27 | 64.87416 | -25.43843 | 37698 ft | 464 kts | 132° |
| 2026-04-27 02:27 | 64.85484 | -25.37831 | 37253 ft | 462 kts | 132° |
| 2026-04-27 02:28 | 64.83548 | -25.31811 | 36797 ft | 460 kts | 134° |
| 2026-04-27 02:28 | 64.81610 | -25.25821 | 36332 ft | 459 kts | 134° |
| 2026-04-27 02:28 | 64.79704 | -25.19947 | 35871 ft | 459 kts | 135° |
| 2026-04-27 02:28 | 64.77764 | -25.13977 | 35400 ft | 461 kts | 135° |
| 2026-04-27 02:29 | 64.75824 | -25.08022 | 34930 ft | 462 kts | 136° |
| 2026-04-27 02:29 | 64.73893 | -25.02114 | 34460 ft | 463 kts | 136° |
| 2026-04-27 02:29 | 64.71956 | -24.96198 | 33984 ft | 464 kts | 137° |
| 2026-04-27 02:29 | 64.69990 | -24.90214 | 33439 ft | 465 kts | 137° |
| 2026-04-27 02:30 | 64.68012 | -24.84215 | 32774 ft | 465 kts | 137° |
| 2026-04-27 02:30 | 64.66055 | -24.78295 | 32121 ft | 466 kts | 138° |
| 2026-04-27 02:30 | 64.64083 | -24.72348 | 31461 ft | 467 kts | 137° |
| 2026-04-27 02:30 | 64.62085 | -24.66322 | 30795 ft | 468 kts | 137° |
| 2026-04-27 02:31 | 64.60107 | -24.60379 | 30142 ft | 469 kts | 137° |
| 2026-04-27 02:31 | 64.58124 | -24.54439 | 29485 ft | 466 kts | 137° |
| 2026-04-27 02:31 | 64.56401 | -24.47990 | 28804 ft | 479 kts | 122° |
| 2026-04-27 02:31 | 64.55449 | -24.40593 | 28132 ft | 490 kts | 107° |
| 2026-04-27 02:32 | 64.54893 | -24.32823 | 27438 ft | 484 kts | 107° |
| 2026-04-27 02:32 | 64.54301 | -24.25209 | 26725 ft | 476 kts | 108° |
| 2026-04-27 02:32 | 64.53697 | -24.17744 | 26017 ft | 469 kts | 108° |
| 2026-04-27 02:32 | 64.53096 | -24.10444 | 25314 ft | 463 kts | 107° |
| 2026-04-27 02:33 | 64.52489 | -24.03135 | 24604 ft | 457 kts | 107° |
| 2026-04-27 02:33 | 64.51891 | -23.96007 | 23909 ft | 451 kts | 107° |
| 2026-04-27 02:33 | 64.51296 | -23.88934 | 23216 ft | 445 kts | 107° |
| 2026-04-27 02:33 | 64.50706 | -23.81988 | 22545 ft | 439 kts | 106° |
| 2026-04-27 02:34 | 64.50119 | -23.75098 | 21897 ft | 434 kts | 106° |
| 2026-04-27 02:34 | 64.49538 | -23.68326 | 21258 ft | 430 kts | 106° |
| 2026-04-27 02:34 | 64.48959 | -23.61604 | 20618 ft | 425 kts | 106° |
| 2026-04-27 02:34 | 64.48383 | -23.54978 | 19983 ft | 420 kts | 106° |
| 2026-04-27 02:35 | 64.47810 | -23.48400 | 19349 ft | 415 kts | 106° |
| 2026-04-27 02:35 | 64.47236 | -23.41861 | 18709 ft | 410 kts | 106° |
| 2026-04-27 02:35 | 64.46673 | -23.35476 | 18073 ft | 405 kts | 106° |
| 2026-04-27 02:35 | 64.46107 | -23.29098 | 17427 ft | 400 kts | 107° |
| 2026-04-27 02:36 | 64.45560 | -23.22954 | 16797 ft | 395 kts | 107° |
| 2026-04-27 02:36 | 64.45021 | -23.16945 | 16172 ft | 390 kts | 107° |
| 2026-04-27 02:36 | 64.44469 | -23.10816 | 15525 ft | 385 kts | 107° |
| 2026-04-27 02:36 | 64.43928 | -23.04843 | 14884 ft | 381 kts | 107° |
| 2026-04-27 02:37 | 64.43388 | -22.98905 | 14238 ft | 377 kts | 107° |
| 2026-04-27 02:37 | 64.42849 | -22.93003 | 13589 ft | 372 kts | 107° |
| 2026-04-27 02:37 | 64.42320 | -22.87230 | 12946 ft | 368 kts | 107° |
| 2026-04-27 02:37 | 64.41788 | -22.81475 | 12298 ft | 364 kts | 107° |
| 2026-04-27 02:38 | 64.41259 | -22.75761 | 11647 ft | 361 kts | 107° |
| 2026-04-27 02:38 | 64.40743 | -22.70221 | 11009 ft | 357 kts | 107° |
| 2026-04-27 02:38 | 64.40219 | -22.64612 | 10355 ft | 353 kts | 107° |
| 2026-04-27 02:38 | 64.39706 | -22.59147 | 9644 ft | 343 kts | 107° |
| 2026-04-27 02:39 | 64.39225 | -22.54001 | 8928 ft | 314 kts | 107° |
| 2026-04-27 02:39 | 64.38787 | -22.49347 | 8279 ft | 291 kts | 107° |
| 2026-04-27 02:39 | 64.38348 | -22.44766 | 7679 ft | 292 kts | 107° |
| 2026-04-27 02:39 | 64.37924 | -22.40332 | 6922 ft | 276 kts | 108° |
| 2026-04-27 02:40 | 64.37521 | -22.36118 | 6310 ft | 269 kts | 108° |
| 2026-04-27 02:40 | 64.37116 | -22.31908 | 5638 ft | 264 kts | 108° |
| 2026-04-27 02:40 | 64.36718 | -22.27802 | 5079 ft | 261 kts | 109° |
| 2026-04-27 02:40 | 64.36330 | -22.23795 | 4771 ft | 257 kts | 108° |
| 2026-04-27 02:41 | 64.35941 | -22.19794 | 4459 ft | 254 kts | 108° |
| 2026-04-27 02:41 | 64.35554 | -22.15803 | 4146 ft | 252 kts | 108° |
| 2026-04-27 02:41 | 64.35172 | -22.11891 | 3837 ft | 249 kts | 108° |
| 2026-04-27 02:41 | 64.34807 | -22.08127 | 3563 ft | 228 kts | 108° |
| 2026-04-27 02:42 | 64.34479 | -22.04734 | 3584 ft | 208 kts | 109° |
| 2026-04-27 02:42 | 64.34181 | -22.01675 | 3628 ft | 186 kts | 109° |
| 2026-04-27 02:42 | 64.33712 | -21.99088 | 3582 ft | 169 kts | 140° |
| 2026-04-27 02:42 | 64.32684 | -21.97996 | 3617 ft | 164 kts | 163° |
| 2026-04-27 02:43 | 64.31599 | -21.97288 | 3587 ft | 160 kts | 169° |
| 2026-04-27 02:43 | 64.30508 | -21.97071 | 3662 ft | 157 kts | 175° |
| 2026-04-27 02:43 | 64.29429 | -21.96907 | 3580 ft | 154 kts | 173° |
| 2026-04-27 02:43 | 64.28364 | -21.96696 | 3516 ft | 152 kts | 173° |
| 2026-04-27 02:44 | 64.27375 | -21.96502 | 3276 ft | 137 kts | 173° |
| 2026-04-27 02:44 | 64.26461 | -21.96328 | 3083 ft | 127 kts | 173° |
| 2026-04-27 02:44 | 64.25589 | -21.96165 | 2881 ft | 124 kts | 173° |
| 2026-04-27 02:44 | 64.24743 | -21.96004 | 2689 ft | 123 kts | 173° |
| 2026-04-27 02:45 | 64.23885 | -21.95834 | 2488 ft | 122 kts | 172° |
| 2026-04-27 02:45 | 64.23047 | -21.95674 | 2289 ft | 121 kts | 172° |
| 2026-04-27 02:45 | 64.22213 | -21.95512 | 2091 ft | 121 kts | 172° |
| 2026-04-27 02:45 | 64.21380 | -21.95371 | 1893 ft | 117 kts | 173° |
| 2026-04-27 02:46 | 64.20599 | -21.95221 | 1699 ft | 112 kts | 172° |
| 2026-04-27 02:46 | 64.19830 | -21.95066 | 1522 ft | 110 kts | 172° |
| 2026-04-27 02:46 | 64.19065 | -21.94920 | 1344 ft | 109 kts | 173° |
| 2026-04-27 02:46 | 64.18308 | -21.94774 | 1167 ft | 111 kts | 173° |
| 2026-04-27 02:47 | 64.17529 | -21.94622 | 980 ft | 114 kts | 172° |
| 2026-04-27 02:47 | 64.16738 | -21.94495 | 684 ft | 115 kts | 173° |
| 2026-04-27 02:47 | 64.15947 | -21.94337 | 467 ft | 115 kts | 172° |
| 2026-04-27 02:47 | 64.15137 | -21.94200 | 350 ft | 116 kts | 173° |
| 2026-04-27 02:48 | 64.14334 | -21.94042 | 247 ft | 117 kts | 172° |
| 2026-04-27 02:48 | 64.13526 | -21.93878 | 56 ft | 114 kts | 175° |
| 2026-04-27 02:48 | 64.12955 | -21.93762 | 42 ft | 49 kts | 175° |
| 2026-04-27 02:48 | 64.12673 | -21.93709 | 35 ft | 38 kts | 173° |
| 2026-04-27 02:49 | 64.12512 | -21.93680 | 31 ft | 18 kts | 177° |
| 2026-04-27 02:49 | 64.12443 | -21.93586 | 29 ft | 11 kts | 95° |
| 2026-04-27 02:49 | 64.12447 | -21.93474 | 32 ft | 3 kts | 71° |
| 2026-04-27 02:49 | 64.12494 | -21.93431 | 36 ft | 17 kts | 356° |
| 2026-04-27 02:50 | 64.12676 | -21.93466 | 40 ft | 27 kts | 354° |
| 2026-04-27 02:50 | 64.12815 | -21.93492 | 40 ft | 17 kts | 355° |
| 2026-04-27 02:50 | 64.12909 | -21.93514 | 45 ft | 9 kts | 339° |
| 2026-04-27 02:50 | 64.12961 | -21.93565 | 46 ft | 8 kts | 358° |
| 2026-04-27 02:51 | 64.13017 | -21.93563 | 46 ft | 8 kts | 2° |
| 2026-04-27 02:51 | 64.13075 | -21.93552 | 46 ft | 8 kts | 10° |
| 2026-04-27 02:51 | 64.13120 | -21.93512 | 46 ft | 6 kts | 72° |
| 2026-04-27 02:51 | 64.13105 | -21.93450 | 46 ft | 3 kts | 133° |
| 2026-04-27 02:52 | 64.13102 | -21.93443 | 46 ft | 0 kts | 133° |